Time;durP1;ratioP1;P1;durP2;ratioP2;P2;SDS_P1;SDS_P2;PMS_P1;PMS_P2;Temp;Humidity;BMP_temperature;BMP_pressure;BME280_temperature;BME280_humidity;BME280_pressure;Samples;Min_cycle;Max_cycle;Signal;HPM_P1;HPM_P2
2021/04/19 00:01:27;;;;;;;21.13;13.25;;;;;;;9.04;100.00;101881.00;6201180;28;20567;-71
2021/04/19 00:04:29;;;;;;;24.48;14.27;;;;;;;9.05;100.00;101880.09;6200723;28;20486;-71
2021/04/19 00:07:30;;;;;;;23.15;14.43;;;;;;;9.09;100.00;101881.72;6201229;28;20055;-71
2021/04/19 00:10:31;;;;;;;25.60;14.57;;;;;;;9.12;100.00;101886.84;6201181;28;20046;-71
2021/04/19 00:13:32;;;;;;;25.15;13.68;;;;;;;9.13;100.00;101885.97;6200614;28;20047;-74
2021/04/19 00:16:33;;;;;;;25.85;14.25;;;;;;;9.10;100.00;101889.53;6200884;28;20481;-72
2021/04/19 00:19:34;;;;;;;26.60;14.43;;;;;;;8.98;100.00;101891.63;6201201;28;20073;-71
2021/04/19 00:22:36;;;;;;;24.25;14.90;;;;;;;8.95;100.00;101889.09;6200782;28;20050;-72
2021/04/19 00:25:37;;;;;;;22.08;14.70;;;;;;;8.91;100.00;101877.00;6199941;28;20050;-71
2021/04/19 00:28:37;;;;;;;28.42;14.45;;;;;;;8.89;100.00;101862.16;6200722;28;20053;-71
2021/04/19 00:31:38;;;;;;;29.08;15.63;;;;;;;8.86;100.00;101864.03;6200075;28;20046;-71
2021/04/19 00:34:40;;;;;;;22.80;14.00;;;;;;;8.87;100.00;101860.50;6199910;28;20129;-71
2021/04/19 00:37:41;;;;;;;22.67;14.07;;;;;;;8.87;100.00;101860.50;6200893;28;20054;-73
2021/04/19 00:40:43;;;;;;;24.48;14.60;;;;;;;8.70;100.00;101873.19;6200626;28;20073;-73
2021/04/19 00:43:44;;;;;;;25.63;13.95;;;;;;;8.65;100.00;101870.69;6199938;28;20055;-73
2021/04/19 00:46:47;;;;;;;27.10;13.13;;;;;;;8.70;100.00;101868.81;6200554;28;20422;-73
2021/04/19 00:49:49;;;;;;;26.80;14.40;;;;;;;8.67;100.00;101868.03;6200202;28;20050;-73
2021/04/19 00:52:50;;;;;;;31.08;15.40;;;;;;;8.62;100.00;101868.16;6199951;28;20057;-71
2021/04/19 00:55:52;;;;;;;30.58;15.57;;;;;;;8.61;100.00;101866.44;6200146;28;20042;-73
2021/04/19 00:58:53;;;;;;;27.60;15.27;;;;;;;8.57;100.00;101864.81;6200347;28;20050;-73
2021/04/19 01:01:54;;;;;;;28.95;15.23;;;;;;;8.56;100.00;101863.09;6199853;28;20050;-73
2021/04/19 01:04:57;;;;;;;28.88;15.88;;;;;;;8.52;100.00;101869.31;6199546;28;20043;-73
2021/04/19 01:07:58;;;;;;;30.85;16.17;;;;;;;8.47;100.00;101872.06;6199768;28;20069;-73
2021/04/19 01:10:59;;;;;;;34.83;16.30;;;;;;;8.44;100.00;101873.88;6199991;28;20050;-72
2021/04/19 01:14:00;;;;;;;31.20;16.42;;;;;;;8.49;100.00;101875.47;6198343;28;20050;-71
2021/04/19 01:17:01;;;;;;;29.10;16.20;;;;;;;8.59;100.00;101873.50;6198976;28;20057;-71
2021/04/19 01:20:06;;;;;;;30.60;17.75;;;;;;;8.49;100.00;101882.47;6199784;28;20125;-71
2021/04/19 01:23:08;;;;;;;33.20;17.27;;;;;;;8.50;100.00;101869.38;6199386;28;20523;-71
2021/04/19 01:26:09;;;;;;;35.75;17.63;;;;;;;8.52;100.00;101875.41;6199636;28;20053;-71
2021/04/19 01:29:11;;;;;;;35.10;18.65;;;;;;;8.59;100.00;101876.13;6198854;28;20046;-72
2021/04/19 01:32:12;;;;;;;35.63;18.60;;;;;;;8.59;100.00;101876.13;6199549;28;20058;-71
2021/04/19 01:35:14;;;;;;;37.88;19.90;;;;;;;8.55;100.00;101877.09;6199075;28;20494;-71
2021/04/19 01:38:19;;;;;;;38.72;19.58;;;;;;;8.55;100.00;101882.34;6199445;28;20046;-73
2021/04/19 01:41:20;;;;;;;37.00;18.75;;;;;;;8.52;100.00;101882.41;6198905;28;20129;-71
2021/04/19 01:44:21;;;;;;;40.15;18.88;;;;;;;8.50;100.00;101885.09;6198334;28;20082;-73
2021/04/19 01:47:22;;;;;;;33.78;18.20;;;;;;;8.51;100.00;101880.69;6199045;28;20047;-71
2021/04/19 01:50:26;;;;;;;41.25;19.63;;;;;;;8.46;100.00;101883.44;6199194;28;20043;-71
2021/04/19 01:53:28;;;;;;;43.63;21.35;;;;;;;8.45;100.00;101886.97;6198613;28;20047;-73
2021/04/19 01:56:29;;;;;;;42.97;20.17;;;;;;;8.44;100.00;101877.38;6198682;28;20073;-71
2021/04/19 01:59:31;;;;;;;38.15;20.15;;;;;;;8.49;100.00;101874.63;6198875;28;20047;-71
2021/04/19 02:02:39;;;;;;;42.03;20.08;;;;;;;8.42;100.00;101871.31;6198346;28;20046;-71
2021/04/19 02:05:49;;;;;;;44.60;20.00;;;;;;;8.39;100.00;101872.25;6198645;28;20618;-73
2021/04/19 02:08:57;;;;;;;40.03;21.73;;;;;;;8.40;100.00;101867.88;6198503;28;20518;-73
2021/04/19 02:12:07;;;;;;;41.03;21.30;;;;;;;8.42;100.00;101870.47;6198611;28;20054;-73
2021/04/19 02:15:14;;;;;;;40.97;22.38;;;;;;;8.40;100.00;101865.25;6198198;28;20058;-73
2021/04/19 02:18:18;;;;;;;43.53;22.50;;;;;;;8.41;100.00;101864.38;6198546;28;20058;-73
2021/04/19 02:21:26;;;;;;;45.92;22.58;;;;;;;8.41;100.00;101872.22;6198293;28;20047;-73
2021/04/19 02:24:34;;;;;;;60.70;25.38;;;;;;;8.35;100.00;101872.34;6198101;28;20050;-73
2021/04/19 02:27:37;;;;;;;42.95;22.08;;;;;;;8.40;100.00;101867.88;6198090;28;20054;-72
2021/04/19 02:30:42;;;;;;;50.47;23.90;;;;;;;8.39;100.00;101869.63;6198159;28;20052;-72
2021/04/19 02:33:45;;;;;;;46.55;24.38;;;;;;;8.34;100.00;101868.00;6197881;28;20088;-72
2021/04/19 02:36:50;;;;;;;54.20;25.50;;;;;;;8.34;100.00;101879.34;6198025;28;20473;-73
2021/04/19 02:39:52;;;;;;;44.83;23.88;;;;;;;8.37;100.00;101871.44;6198411;28;20050;-72
2021/04/19 02:42:56;;;;;;;48.88;24.23;;;;;;;8.36;100.00;101869.72;6197777;28;20053;-72
2021/04/19 02:45:58;;;;;;;45.42;23.60;;;;;;;8.32;100.00;101870.69;6197888;28;20050;-72
2021/04/19 02:48:59;;;;;;;52.22;24.35;;;;;;;8.35;100.00;101872.34;6197764;28;20051;-72
2021/04/19 02:52:03;;;;;;;44.95;23.65;;;;;;;8.33;100.00;101868.91;6197734;28;20050;-73
2021/04/19 02:55:07;;;;;;;48.92;25.50;;;;;;;8.36;100.00;101876.69;6197257;28;20047;-73
2021/04/19 02:58:09;;;;;;;47.92;24.40;;;;;;;8.30;100.00;101887.31;6197745;28;20054;-73
2021/04/19 03:01:16;;;;;;;55.53;25.60;;;;;;;8.28;100.00;101891.75;6197785;28;20061;-73
2021/04/19 03:04:20;;;;;;;48.05;23.90;;;;;;;8.27;100.00;101885.66;6197541;28;20101;-73
2021/04/19 03:07:28;;;;;;;52.45;25.95;;;;;;;8.35;100.00;101880.19;6197551;28;20103;-73
2021/04/19 03:10:33;;;;;;;50.10;25.52;;;;;;;8.25;100.00;101882.19;6197601;28;20053;-73
2021/04/19 03:13:37;;;;;;;56.88;26.20;;;;;;;8.25;100.00;101876.09;6197257;28;20061;-71
2021/04/19 03:16:41;;;;;;;54.33;26.48;;;;;;;8.17;100.00;101878.03;6197697;28;20065;-71
2021/04/19 03:19:47;;;;;;;50.80;25.90;;;;;;;8.18;100.00;101878.03;6197410;28;20042;-71
2021/04/19 03:22:49;;;;;;;48.78;26.95;;;;;;;8.16;100.00;101882.41;6197552;28;20061;-71
2021/04/19 03:25:53;;;;;;;52.80;26.95;;;;;;;8.14;100.00;101879.84;6197197;28;20458;-71
2021/04/19 03:28:56;;;;;;;53.75;27.85;;;;;;;8.13;100.00;101874.66;6197481;28;20046;-71
2021/04/19 03:32:01;;;;;;;47.95;25.02;;;;;;;8.18;100.00;101874.56;6197257;28;20487;-73
2021/04/19 03:35:06;;;;;;;48.30;26.65;;;;;;;8.09;100.00;101868.63;6197312;28;20498;-70
2021/04/19 03:38:10;;;;;;;53.30;27.15;;;;;;;8.07;100.00;101867.81;6197290;28;20051;-72
2021/04/19 03:41:12;;;;;;;51.53;27.35;;;;;;;8.07;100.00;101867.81;6197284;28;20054;-72
2021/04/19 03:44:18;;;;;;;52.95;26.73;;;;;;;8.07;100.00;101872.19;6197027;28;20430;-72
2021/04/19 03:47:21;;;;;;;53.20;28.90;;;;;;;8.05;100.00;101872.22;6197474;28;20065;-72
2021/04/19 03:50:24;;;;;;;60.60;27.00;;;;;;;8.03;100.00;101875.78;6197063;28;20047;-72
2021/04/19 03:53:27;;;;;;;57.67;28.27;;;;;;;8.02;100.00;101877.53;6197020;28;20082;-72
2021/04/19 03:56:32;;;;;;;49.03;26.88;;;;;;;8.02;100.00;101874.06;6197192;28;20098;-72
2021/04/19 03:59:35;;;;;;;49.47;26.20;;;;;;;7.99;100.00;101876.75;6197203;28;20050;-73
2021/04/19 04:02:40;;;;;;;45.90;25.80;;;;;;;7.96;100.00;101885.53;6196866;28;20043;-73
2021/04/19 04:05:41;;;;;;;51.30;26.83;;;;;;;7.95;100.00;101889.06;6197865;28;20046;-72
2021/04/19 04:08:42;;;;;;;46.33;26.02;;;;;;;7.98;100.00;101877.66;6201231;28;20443;-72
2021/04/19 04:11:45;;;;;;;49.58;26.73;;;;;;;7.98;100.00;101885.50;6201232;28;20050;-73
2021/04/19 04:14:50;;;;;;;47.58;25.75;;;;;;;7.96;100.00;101874.22;6201041;28;20050;-72
2021/04/19 04:17:51;;;;;;;50.83;25.17;;;;;;;7.91;100.00;101887.41;6201083;28;20050;-72
2021/04/19 04:20:53;;;;;;;49.17;25.52;;;;;;;7.88;100.00;101885.72;6201120;28;20181;-72
2021/04/19 04:23:54;;;;;;;51.45;23.90;;;;;;;7.84;100.00;101885.81;6200886;28;20061;-72
2021/04/19 04:26:56;;;;;;;51.92;25.63;;;;;;;7.85;100.00;101883.16;6201085;28;20109;-72
2021/04/19 04:29:57;;;;;;;42.40;24.27;;;;;;;7.85;100.00;101880.53;6200609;28;20410;-72
2021/04/19 04:32:58;;;;;;;46.78;22.90;;;;;;;7.76;100.00;101893.00;6200809;28;20054;-72
2021/04/19 04:35:58;;;;;;;45.92;23.48;;;;;;;7.74;100.00;101889.56;6200823;28;20133;-72
2021/04/19 04:38:59;;;;;;;45.70;24.25;;;;;;;7.76;100.00;101893.00;6200714;28;20046;-72
2021/04/19 04:42:04;;;;;;;42.55;23.55;;;;;;;7.71;100.00;101884.38;6200631;28;20050;-72
2021/04/19 04:45:06;;;;;;;44.85;22.98;;;;;;;7.78;100.00;101892.06;6200294;28;20050;-72
2021/04/19 04:48:09;;;;;;;46.42;23.98;;;;;;;7.75;100.00;101880.81;6200572;28;20061;-72
2021/04/19 04:51:13;;;;;;;43.15;23.05;;;;;;;7.71;100.00;101893.09;6220303;28;20054;-72
2021/04/19 04:54:16;;;;;;;41.40;21.30;;;;;;;7.69;100.00;101891.44;6224488;28;20050;-72
2021/04/19 04:57:21;;;;;;;34.38;19.67;;;;;;;7.72;100.00;101893.94;6217959;28;20050;-70
2021/04/19 05:00:23;;;;;;;32.70;19.02;;;;;;;7.60;100.00;101892.50;6212408;28;20503;-70
2021/04/19 05:03:25;;;;;;;34.22;18.52;;;;;;;7.57;100.00;101897.78;6211121;28;20461;-70
2021/04/19 05:06:27;;;;;;;38.58;18.10;;;;;;;7.61;100.00;101904.66;6202449;28;20046;-70
2021/04/19 05:09:29;;;;;;;34.13;18.55;;;;;;;7.57;100.00;101901.25;6209129;28;20054;-70
2021/04/19 05:12:31;;;;;;;46.10;21.20;;;;;;;7.56;100.00;101910.00;6209963;28;20502;-72
2021/04/19 05:15:40;;;;;;;34.38;18.90;;;;;;;7.59;100.00;101909.09;6211272;28;20112;-72
2021/04/19 05:18:41;;;;;;;34.47;18.13;;;;;;;7.57;100.00;101922.19;6211744;28;20065;-70
2021/04/19 05:21:42;;;;;;;36.70;17.98;;;;;;;7.60;100.00;101905.56;6208892;28;20082;-70
2021/04/19 05:24:43;;;;;;;36.78;19.75;;;;;;;7.66;100.00;101915.03;6210906;28;20041;-70
2021/04/19 05:27:45;;;;;;;34.17;18.55;;;;;;;7.61;100.00;101921.22;6209161;28;20123;-70
2021/04/19 05:30:48;;;;;;;36.70;18.60;;;;;;;7.62;100.00;101925.56;6210554;28;20056;-70
2021/04/19 05:33:54;;;;;;;27.90;16.75;;;;;;;7.67;100.00;101919.38;6209349;28;20341;-70
2021/04/19 05:36:55;;;;;;;39.33;17.65;;;;;;;7.58;100.00;101923.91;6209413;28;20077;-72
2021/04/19 05:39:57;;;;;;;27.27;15.95;;;;;;;7.53;100.00;101931.00;6210544;28;20046;-72
2021/04/19 05:43:01;;;;;;;31.00;16.48;;;;;;;7.51;100.00;101934.56;6206472;28;20057;-72
2021/04/19 05:46:02;;;;;;;31.42;15.98;;;;;;;7.54;100.00;101929.22;6209748;28;20046;-72
2021/04/19 05:49:03;;;;;;;25.67;15.18;;;;;;;7.54;100.00;101935.34;6209253;28;20042;-72
2021/04/19 05:52:07;;;;;;;22.55;14.27;;;;;;;7.47;100.00;101933.75;6210088;28;20529;-72
2021/04/19 05:55:10;;;;;;;26.90;14.57;;;;;;;7.50;100.00;101935.44;6208525;28;20045;-72
2021/04/19 05:58:17;;;;;;;26.90;14.43;;;;;;;7.49;100.00;101931.09;6208182;28;20050;-72
2021/04/19 06:01:21;;;;;;;24.35;14.73;;;;;;;7.51;100.00;101935.41;6211160;28;20049;-72
2021/04/19 06:04:27;;;;;;;23.77;13.93;;;;;;;7.56;100.00;101936.16;6209232;28;20590;-72
2021/04/19 06:07:34;;;;;;;26.85;15.05;;;;;;;7.56;100.00;101938.78;6208964;28;20467;-72
2021/04/19 06:10:40;;;;;;;25.60;14.75;;;;;;;7.58;100.00;101951.81;6213289;28;20073;-72
2021/04/19 06:13:43;;;;;;;27.58;15.55;;;;;;;7.61;100.00;101950.00;6222622;28;20433;-72
2021/04/19 06:16:46;;;;;;;41.20;15.48;;;;;;;7.62;100.00;101953.47;6222744;28;20394;-72
2021/04/19 06:19:48;;;;;;;28.83;16.00;;;;;;;7.59;100.00;101953.56;6222875;28;20559;-72
2021/04/19 06:22:50;;;;;;;27.48;15.70;;;;;;;7.58;100.00;101957.91;6209458;28;20061;-72
2021/04/19 06:25:51;;;;;;;27.55;14.95;;;;;;;7.63;100.00;101956.09;6203635;28;20050;-72
2021/04/19 06:28:53;;;;;;;25.95;14.65;;;;;;;7.58;100.00;101957.91;6210162;28;20418;-72
2021/04/19 06:31:55;;;;;;;28.70;15.48;;;;;;;7.60;100.00;101963.13;6211266;28;20054;-72
2021/04/19 06:34:56;;;;;;;28.85;16.33;;;;;;;7.62;100.00;101970.03;6218466;28;20046;-73
2021/04/19 06:37:57;;;;;;;27.75;15.45;;;;;;;7.62;100.00;101967.41;6217604;28;20046;-72
2021/04/19 06:40:58;;;;;;;32.42;16.13;;;;;;;7.63;100.00;101968.31;6214144;28;20052;-72
2021/04/19 06:44:01;;;;;;;28.73;15.98;;;;;;;7.69;100.00;101967.31;6221195;28;20050;-72
2021/04/19 06:47:02;;;;;;;29.00;16.10;;;;;;;7.71;100.00;101971.59;6201744;28;20053;-72
2021/04/19 06:50:04;;;;;;;33.97;15.68;;;;;;;7.77;100.00;101968.00;6212628;28;20049;-72
2021/04/19 06:53:06;;;;;;;30.05;16.45;;;;;;;7.79;100.00;101972.28;6220314;28;20502;-72
2021/04/19 06:56:07;;;;;;;29.58;15.95;;;;;;;7.82;100.00;101974.00;6216723;28;20560;-72
2021/04/19 06:59:11;;;;;;;30.25;16.17;;;;;;;7.84;100.00;101974.81;6197726;28;20054;-73
2021/04/19 07:02:18;;;;;;;32.28;16.42;;;;;;;7.83;100.00;101973.09;6202923;28;20049;-70
2021/04/19 07:05:22;;;;;;;29.00;16.17;;;;;;;7.87;100.00;101972.13;6212737;28;20053;-72
2021/04/19 07:08:30;;;;;;;27.75;14.55;;;;;;;7.83;100.00;101976.56;6221858;28;20057;-72
2021/04/19 07:11:35;;;;;;;30.05;16.15;;;;;;;7.85;100.00;101966.06;6222018;28;20057;-72
2021/04/19 07:14:39;;;;;;;28.83;16.02;;;;;;;7.87;100.00;101972.97;6220391;28;20046;-74
2021/04/19 07:17:40;;;;;;;37.03;16.25;;;;;;;7.92;100.00;101985.97;6213752;28;20061;-72
2021/04/19 07:20:43;;;;;;;28.38;15.38;;;;;;;7.87;100.00;101972.13;6221498;28;20054;-72
2021/04/19 07:23:44;;;;;;;31.80;16.33;;;;;;;7.91;100.00;101984.25;6213600;28;20045;-73
2021/04/19 07:26:48;;;;;;;34.35;17.33;;;;;;;7.92;100.00;101972.88;6220990;28;20046;-72
2021/04/19 07:29:50;;;;;;;30.90;16.48;;;;;;;7.98;100.00;101971.88;6212009;28;20046;-72
2021/04/19 07:32:51;;;;;;;29.75;16.33;;;;;;;8.02;100.00;101970.91;6212323;28;20865;-72
2021/04/19 07:35:52;;;;;;;36.13;16.95;;;;;;;8.01;100.00;101977.06;6213668;28;20068;-71
2021/04/19 07:38:55;;;;;;;30.63;17.23;;;;;;;8.00;100.00;101977.97;6204608;28;20046;-72
2021/04/19 07:41:57;;;;;;;28.60;16.50;;;;;;;8.02;100.00;101973.53;6201392;28;20514;-72
2021/04/19 07:44:59;;;;;;;31.40;16.23;;;;;;;8.00;100.00;101972.72;6210832;28;20101;-72
2021/04/19 07:47:59;;;;;;;30.10;16.23;;;;;;;7.96;100.00;101977.16;6217040;28;20050;-72
2021/04/19 07:51:25;;;;;;;27.23;16.10;;;;;;;8.05;100.00;101971.72;6225428;28;20429;-72
2021/04/19 07:54:26;;;;;;;32.72;18.50;;;;;;;8.10;100.00;101966.38;6218594;28;20050;-72
2021/04/19 07:57:26;;;;;;;24.25;14.82;;;;;;;8.12;100.00;101977.66;6217888;28;20132;-73
2021/04/19 08:00:31;;;;;;;25.55;14.52;;;;;;;8.14;100.00;101976.72;6225624;28;20053;-73
2021/04/19 08:03:37;;;;;;;29.10;16.08;;;;;;;8.05;100.00;101976.09;6216738;28;20056;-72
2021/04/19 08:06:38;;;;;;;29.92;15.60;;;;;;;8.13;100.00;101977.63;6225604;28;20132;-72
2021/04/19 08:09:39;;;;;;;27.58;15.52;;;;;;;8.13;100.00;101979.41;6218619;28;20062;-73
2021/04/19 08:12:42;;;;;;;26.05;14.95;;;;;;;8.17;100.00;101972.31;6200940;28;20514;-73
2021/04/19 08:15:46;;;;;;;24.73;14.88;;;;;;;8.22;100.00;101978.28;6200326;28;20414;-73
2021/04/19 08:18:48;;;;;;;25.25;13.98;;;;;;;8.17;100.00;101985.41;6209686;28;20058;-73
2021/04/19 08:21:50;;;;;;;27.40;15.63;;;;;;;8.14;100.00;101981.97;6219514;28;20077;-73
2021/04/19 08:25:06;;;;;;;24.33;14.30;;;;;;;8.28;100.00;101980.78;6218427;28;20078;-73
2021/04/19 08:28:09;;;;;;;32.00;16.02;;;;;;;8.24;100.00;101974.75;6214743;28;20387;-73
2021/04/19 08:31:12;;;;;;;23.15;14.15;;;;;;;8.24;100.00;101976.50;6210111;28;20072;-74
2021/04/19 08:34:13;;;;;;;27.00;15.23;;;;;;;8.29;100.00;101975.50;6209322;28;20066;-73
2021/04/19 08:37:17;;;;;;;27.00;14.90;;;;;;;8.41;100.00;101984.00;6212418;28;20053;-73
2021/04/19 08:40:19;;;;;;;23.25;14.27;;;;;;;8.43;100.00;101982.19;6207474;28;20537;-73
2021/04/19 08:43:23;;;;;;;25.33;14.38;;;;;;;8.45;100.00;101983.91;6220057;28;20054;-75
2021/04/19 08:46:25;;;;;;;24.67;14.43;;;;;;;8.53;100.00;101992.41;6212452;28;20123;-73
2021/04/19 08:49:26;;;;;;;27.77;15.55;;;;;;;8.58;100.00;101993.16;6211438;28;20038;-74
2021/04/19 08:52:28;;;;;;;30.33;15.65;;;;;;;8.68;100.00;102000.81;6204679;28;20054;-73
2021/04/19 08:55:29;;;;;;;25.13;14.88;;;;;;;8.61;100.00;101995.69;6214740;28;20058;-74
2021/04/19 08:58:33;;;;;;;24.00;14.00;;;;;;;8.68;100.00;101999.03;6223692;28;20100;-74
2021/04/19 09:01:35;;;;;;;26.77;14.15;;;;;;;8.56;100.00;101994.09;6224175;28;20080;-74
2021/04/19 09:04:36;;;;;;;23.85;14.18;;;;;;;8.63;100.00;101996.53;6223166;28;20053;-73
2021/04/19 09:07:38;;;;;;;23.42;14.07;;;;;;;8.63;100.00;101991.28;6223297;28;20502;-73
2021/04/19 09:10:51;;;;;;;21.85;13.10;;;;;;;8.74;100.00;101990.16;6223791;28;20046;-73
2021/04/19 09:14:03;;;;;;;27.42;14.77;;;;;;;8.85;100.00;101988.09;6198446;28;20054;-73
2021/04/19 09:17:05;;;;;;;23.55;13.27;;;;;;;8.97;100.00;101979.91;6199453;28;20054;-73
2021/04/19 09:20:09;;;;;;;24.33;12.23;;;;;;;9.26;98.57;101997.47;6198718;28;20483;-73
2021/04/19 09:23:26;;;;;;;27.42;14.35;;;;;;;9.10;99.71;101991.78;6198577;28;20046;-73
2021/04/19 09:26:47;;;;;;;20.98;12.75;;;;;;;9.08;100.00;102003.22;6198851;28;20058;-73
2021/04/19 09:29:48;;;;;;;26.80;14.27;;;;;;;9.13;99.85;101998.72;6198614;28;20046;-72
2021/04/19 09:33:20;;;;;;;21.27;13.40;;;;;;;9.10;99.91;101997.03;6198380;28;20498;-73
2021/04/19 09:36:49;;;;;;;21.20;13.07;;;;;;;9.14;100.00;102000.44;6198514;28;20054;-73
2021/04/19 09:39:58;;;;;;;26.98;13.80;;;;;;;9.12;99.18;102003.09;6198698;28;20050;-73
2021/04/19 09:43:05;;;;;;;21.90;12.95;;;;;;;9.19;100.00;102001.19;6197837;28;20125;-73
2021/04/19 09:46:07;;;;;;;24.60;13.10;;;;;;;9.25;100.00;101994.91;6208768;28;20046;-73
2021/04/19 09:49:09;;;;;;;21.85;13.60;;;;;;;9.28;100.00;101998.31;6222512;28;20046;-74
2021/04/19 09:52:10;;;;;;;23.65;13.18;;;;;;;9.34;100.00;102002.50;6216708;28;20069;-73
2021/04/19 09:55:12;;;;;;;21.08;13.13;;;;;;;9.36;99.24;101992.84;6217408;28;20061;-74
2021/04/19 09:58:13;;;;;;;20.45;12.20;;;;;;;9.50;99.34;101993.31;6218805;28;20076;-74
2021/04/19 10:01:17;;;;;;;22.52;12.65;;;;;;;9.54;99.45;101989.69;6222296;28;20053;-74
2021/04/19 10:04:19;;;;;;;19.75;12.38;;;;;;;9.49;98.29;101990.72;6220233;28;20068;-74
2021/04/19 10:07:20;;;;;;;25.23;15.05;;;;;;;9.48;98.48;101994.25;6222092;28;20050;-73
2021/04/19 10:10:21;;;;;;;25.17;12.88;;;;;;;9.48;97.59;101992.47;6222824;28;20045;-73
2021/04/19 10:13:30;;;;;;;22.63;11.57;;;;;;;9.46;96.07;101996.06;6222058;28;20053;-73
2021/04/19 10:16:38;;;;;;;18.75;11.35;;;;;;;9.38;96.23;101993.66;6221287;28;20417;-73
2021/04/19 10:19:40;;;;;;;19.65;11.25;;;;;;;9.34;96.66;101994.63;6222532;28;20049;-73
2021/04/19 10:22:41;;;;;;;19.02;11.10;;;;;;;9.38;96.76;101997.13;6222410;28;20045;-74
2021/04/19 10:25:46;;;;;;;21.73;12.25;;;;;;;9.35;96.77;101991.09;6221607;28;20517;-74
2021/04/19 10:28:48;;;;;;;21.63;12.07;;;;;;;9.35;97.34;101985.84;6222340;28;20061;-72
2021/04/19 10:31:50;;;;;;;17.98;11.80;;;;;;;9.38;97.02;101988.41;6222215;28;20100;-73
2021/04/19 10:34:52;;;;;;;22.17;12.40;;;;;;;9.30;96.79;101991.25;6221547;28;20485;-73
2021/04/19 10:37:53;;;;;;;20.63;12.18;;;;;;;9.43;97.20;101993.53;6221299;28;20050;-73
2021/04/19 10:40:58;;;;;;;24.63;12.55;;;;;;;9.46;97.96;101990.81;6220913;28;20128;-74
2021/04/19 10:44:00;;;;;;;23.38;13.63;;;;;;;9.51;97.05;101981.91;6221822;28;20564;-73
2021/04/19 10:47:00;;;;;;;26.25;15.13;;;;;;;9.60;98.01;101983.41;6222064;28;20054;-73
2021/04/19 10:50:03;;;;;;;30.85;17.30;;;;;;;9.71;97.24;101972.56;6222306;28;20045;-72
2021/04/19 10:53:03;;;;;;;24.65;13.95;;;;;;;9.87;95.69;101981.72;6221373;28;20143;-73
2021/04/19 10:56:06;;;;;;;27.67;13.88;;;;;;;10.20;95.00;101971.06;6222450;28;20053;-73
2021/04/19 10:59:08;;;;;;;22.40;13.80;;;;;;;10.32;92.60;101973.34;6221823;28;20057;-74
2021/04/19 11:02:10;;;;;;;23.33;12.77;;;;;;;10.62;93.13;101968.81;6221944;28;20053;-74
2021/04/19 11:05:14;;;;;;;20.80;13.20;;;;;;;10.70;89.29;101966.78;6249238;23;20579;-76
2021/04/19 11:08:15;;;;;;;22.35;12.45;;;;;;;10.78;89.74;101971.78;6260361;28;20045;-75
2021/04/19 11:11:24;;;;;;;22.88;13.55;;;;;;;11.31;87.52;101971.63;6258634;28;20048;-77
2021/04/19 11:14:33;;;;;;;20.55;12.60;;;;;;;11.33;86.94;101968.03;6246867;28;20049;-77
2021/04/19 11:17:34;;;;;;;19.13;12.45;;;;;;;11.54;87.20;101962.91;6226893;28;20061;-77
2021/04/19 11:20:38;;;;;;;22.52;13.13;;;;;;;11.54;86.05;101947.97;6227043;28;20050;-77
2021/04/19 11:23:39;;;;;;;23.15;12.32;;;;;;;12.01;85.14;101952.31;6226463;28;20088;-77
2021/04/19 11:26:40;;;;;;;18.20;12.48;;;;;;;12.64;85.41;101951.44;6228395;28;20057;-78
2021/04/19 11:29:43;;;;;;;18.13;12.00;;;;;;;12.57;80.38;101944.69;6242874;28;20050;-77
2021/04/19 11:32:44;;;;;;;23.02;12.60;;;;;;;12.42;78.17;101940.09;6251429;28;20057;-77
2021/04/19 11:35:47;;;;;;;19.67;12.98;;;;;;;11.88;80.70;101937.00;6250890;28;20417;-77
2021/04/19 11:38:48;;;;;;;19.73;12.45;;;;;;;11.86;84.69;101938.00;6250992;28;20058;-76
2021/04/19 11:41:51;;;;;;;21.23;13.15;;;;;;;11.77;83.47;101935.69;6250794;28;20497;-77
2021/04/19 11:44:52;;;;;;;21.13;12.30;;;;;;;12.07;83.68;101930.97;6250310;28;20050;-75
2021/04/19 11:47:53;;;;;;;17.90;12.52;;;;;;;12.09;82.43;101919.47;6251210;28;20099;-75
2021/04/19 11:50:55;;;;;;;22.25;13.05;;;;;;;12.54;78.73;101915.84;6250874;28;20111;-76
2021/04/19 11:53:56;;;;;;;20.02;12.25;;;;;;;12.70;80.50;101916.03;6251421;28;20057;-76
2021/04/19 11:56:57;;;;;;;18.58;12.05;;;;;;;13.11;79.40;101926.53;6251086;28;20460;-77
2021/04/19 11:59:58;;;;;;;18.20;12.18;;;;;;;13.34;77.95;101925.53;6251307;28;20045;-76
2021/04/19 12:02:58;;;;;;;18.45;11.40;;;;;;;13.51;77.21;101922.09;6248797;28;20489;-76
2021/04/19 12:06:02;;;;;;;17.33;11.63;;;;;;;13.43;72.58;101922.44;6258762;28;20051;-77
2021/04/19 12:09:04;;;;;;;17.27;11.73;;;;;;;13.24;77.89;101919.81;6275027;28;20420;-76
2021/04/19 12:12:05;;;;;;;20.83;12.38;;;;;;;13.52;77.63;101913.25;6275319;28;20048;-76
2021/04/19 12:15:07;;;;;;;22.63;11.63;;;;;;;13.57;72.55;101906.81;6275115;28;20045;-77
2021/04/19 12:18:08;;;;;;;21.00;12.35;;;;;;;13.95;74.70;101907.63;6275618;28;20045;-76
2021/04/19 12:21:09;;;;;;;16.77;10.77;;;;;;;14.06;71.70;101898.31;6275543;28;20048;-76
2021/04/19 12:24:11;;;;;;;21.00;11.70;;;;;;;13.98;71.37;101913.69;6274805;28;20987;-76
2021/04/19 12:27:12;;;;;;;17.95;11.10;;;;;;;14.08;71.34;101904.38;6274378;28;20052;-76
2021/04/19 12:30:14;;;;;;;19.65;11.50;;;;;;;13.59;76.40;101906.75;6274873;28;20151;-77
2021/04/19 12:33:15;;;;;;;20.83;12.13;;;;;;;13.90;74.43;101901.72;6274825;28;20045;-75
2021/04/19 12:36:17;;;;;;;17.50;12.15;;;;;;;14.03;70.95;101899.31;6274640;28;20052;-77
2021/04/19 12:39:18;;;;;;;15.77;10.32;;;;;;;13.62;71.59;101901.31;6274994;28;20056;-76
2021/04/19 12:42:19;;;;;;;18.92;10.73;;;;;;;13.38;73.92;101895.41;6274946;28;20051;-77
2021/04/19 12:45:23;;;;;;;20.17;11.73;;;;;;;13.24;71.31;101895.19;6266166;28;20046;-77
2021/04/19 12:48:24;;;;;;;22.05;11.05;;;;;;;13.15;75.90;101892.00;6225183;28;20054;-76
2021/04/19 12:51:27;;;;;;;17.45;10.93;;;;;;;13.35;77.90;101899.06;6224922;28;20081;-77
2021/04/19 12:54:27;;;;;;;50.28;15.38;;;;;;;13.98;73.63;101889.91;6224621;28;20101;-76
2021/04/19 12:57:28;;;;;;;19.08;10.95;;;;;;;14.27;67.70;101877.88;6224936;28;20058;-76
2021/04/19 13:00:29;;;;;;;20.13;10.95;;;;;;;14.49;72.83;101883.81;6225189;28;20414;-77
2021/04/19 13:03:30;;;;;;;17.58;10.05;;;;;;;14.30;69.07;101886.50;6224981;28;20049;-75
2021/04/19 13:06:32;;;;;;;15.57;9.25;;;;;;;14.52;68.68;101874.84;6251532;28;20048;-75
2021/04/19 13:09:34;;;;;;;16.73;9.65;;;;;;;14.69;68.69;101888.06;6273918;28;20132;-77
2021/04/19 13:12:35;;;;;;;17.33;9.35;;;;;;;15.29;66.21;101884.88;6274078;28;20071;-77
2021/04/19 13:15:36;;;;;;;12.98;8.48;;;;;;;15.52;64.29;101878.28;6273863;28;20052;-78
2021/04/19 13:18:37;;;;;;;12.88;8.95;;;;;;;15.30;64.65;101874.19;6232257;28;20054;-76
2021/04/19 13:21:38;;;;;;;13.52;9.18;;;;;;;15.15;65.21;101880.31;6243884;28;20049;-76
2021/04/19 13:24:39;;;;;;;14.40;8.02;;;;;;;15.03;64.75;101875.69;6248054;28;20057;-76
2021/04/19 13:27:40;;;;;;;19.38;10.05;;;;;;;14.69;67.53;101874.84;6246153;28;20068;-77
2021/04/19 13:30:41;;;;;;;18.95;10.13;;;;;;;14.65;66.97;101871.50;6240060;28;20046;-77
2021/04/19 13:33:42;;;;;;;12.95;8.40;;;;;;;14.56;66.77;101861.38;6248122;28;20060;-75
2021/04/19 13:36:44;;;;;;;14.30;9.23;;;;;;;14.45;67.95;101859.28;6248727;28;20501;-75
2021/04/19 13:39:45;;;;;;;39.47;10.52;;;;;;;14.26;68.31;101852.34;6248271;28;20052;-74
2021/04/19 13:42:46;;;;;;;30.33;8.85;;;;;;;14.33;68.26;101859.06;6248589;28;20053;-76
2021/04/19 13:45:47;;;;;;;18.52;9.82;;;;;;;14.20;67.78;101853.53;6246819;28;20057;-76
2021/04/19 13:48:47;;;;;;;15.05;9.82;;;;;;;14.21;67.35;101860.53;6237641;28;20046;-77
2021/04/19 13:51:49;;;;;;;16.58;9.65;;;;;;;14.56;67.75;101850.81;6224048;28;20344;-76